Time;durP1;ratioP1;P1;durP2;ratioP2;P2;SDS_P1;SDS_P2;PMS_P1;PMS_P2;Temp;Humidity;BMP_temperature;BMP_pressure;BME280_temperature;BME280_humidity;BME280_pressure;Samples;Min_cycle;Max_cycle;Signal;HPM_P1;HPM_P2
2023/12/09 00:01:23;;;;;;;33.67;22.65;;;7.50;99.90;;;;;;5123741;28;20043;-71
2023/12/09 00:03:49;;;;;;;36.53;22.38;;;7.50;99.90;;;;;;5122842;28;20044;-71
2023/12/09 00:06:14;;;;;;;36.63;22.75;;;7.60;99.90;;;;;;5122651;28;20039;-74
2023/12/09 00:08:40;;;;;;;32.45;21.98;;;7.60;99.90;;;;;;5124677;28;20043;-73
2023/12/09 00:11:06;;;;;;;41.42;24.73;;;7.60;99.90;;;;;;5104095;28;20067;-72
2023/12/09 00:13:32;;;;;;;35.25;22.45;;;7.60;99.90;;;;;;5122865;28;20464;-72
2023/12/09 00:15:59;;;;;;;38.40;23.70;;;7.60;99.90;;;;;;5123831;28;20035;-71
2023/12/09 00:18:24;;;;;;;32.22;21.35;;;7.60;99.90;;;;;;5122433;28;20036;-71
2023/12/09 00:20:50;;;;;;;30.58;21.30;;;7.60;99.90;;;;;;5122967;28;20046;-71
2023/12/09 00:23:16;;;;;;;33.08;22.63;;;7.60;99.90;;;;;;5122425;28;20042;-74
2023/12/09 00:25:41;;;;;;;38.40;23.00;;;7.60;99.90;;;;;;5123781;28;20054;-75
2023/12/09 00:28:07;;;;;;;19.17;17.05;;;7.60;99.90;;;;;;5120329;28;20039;-71
2023/12/09 00:30:33;;;;;;;39.58;24.58;;;7.60;99.90;;;;;;5124158;28;20122;-70
2023/12/09 00:32:59;;;;;;;32.75;23.20;;;7.60;99.90;;;;;;5121803;28;20034;-73
2023/12/09 00:35:24;;;;;;;32.60;22.20;;;7.50;99.90;;;;;;5122991;28;20073;-72
2023/12/09 00:37:50;;;;;;;34.10;21.42;;;7.50;99.90;;;;;;5122565;28;20035;-75
2023/12/09 00:40:17;;;;;;;34.38;23.90;;;7.50;99.90;;;;;;5120896;28;20044;-71
2023/12/09 00:42:43;;;;;;;30.65;21.00;;;7.60;99.90;;;;;;5123852;28;20117;-71
2023/12/09 00:45:09;;;;;;;29.55;21.33;;;7.50;99.90;;;;;;5120274;28;20449;-73
2023/12/09 00:47:35;;;;;;;29.02;20.60;;;7.60;99.90;;;;;;5123498;28;20032;-72
2023/12/09 00:50:01;;;;;;;29.05;21.98;;;7.60;99.90;;;;;;5120980;28;20099;-72
2023/12/09 00:52:26;;;;;;;37.13;21.83;;;7.60;99.90;;;;;;5121744;28;20048;-71
2023/12/09 00:54:52;;;;;;;30.33;21.55;;;7.50;99.90;;;;;;5123834;28;20035;-72
2023/12/09 00:57:19;;;;;;;35.53;21.60;;;7.60;99.90;;;;;;5120995;28;20694;-74
2023/12/09 00:59:44;;;;;;;28.83;20.67;;;7.60;99.90;;;;;;5122536;28;20043;-72
2023/12/09 01:02:10;;;;;;;31.10;21.33;;;7.60;99.90;;;;;;5121413;28;20089;-71
2023/12/09 01:04:36;;;;;;;30.00;20.83;;;7.60;99.90;;;;;;5121861;28;20510;-72
2023/12/09 01:07:01;;;;;;;26.58;20.73;;;7.60;99.90;;;;;;5121815;28;20067;-71
2023/12/09 01:09:27;;;;;;;31.17;19.83;;;7.60;99.90;;;;;;5122232;28;20077;-72
2023/12/09 01:11:53;;;;;;;25.67;17.77;;;7.60;99.90;;;;;;5120670;28;20051;-74
2023/12/09 01:14:18;;;;;;;27.23;18.00;;;7.60;99.90;;;;;;5102164;28;20036;-73
2023/12/09 01:16:44;;;;;;;26.98;17.83;;;7.60;99.90;;;;;;5122650;28;20054;-72
2023/12/09 01:19:10;;;;;;;26.02;16.20;;;7.60;99.90;;;;;;5119817;28;20044;-71
2023/12/09 01:21:36;;;;;;;22.42;16.85;;;8.20;99.90;;;;;;5122117;28;20036;-74
2023/12/09 01:24:02;;;;;;;26.58;17.48;;;7.70;99.90;;;;;;5120119;28;20478;-75
2023/12/09 01:26:28;;;;;;;25.13;17.08;;;7.70;99.90;;;;;;5121702;28;20107;-72
2023/12/09 01:28:54;;;;;;;27.52;16.55;;;7.60;99.90;;;;;;5122296;28;20036;-74
2023/12/09 01:31:19;;;;;;;25.75;17.77;;;7.60;99.90;;;;;;5120310;28;20043;-72
2023/12/09 01:33:45;;;;;;;33.13;17.25;;;7.60;99.90;;;;;;5123546;28;20036;-73
2023/12/09 01:36:10;;;;;;;25.13;16.83;;;7.70;99.90;;;;;;5118122;28;20067;-73
2023/12/09 01:38:36;;;;;;;31.48;17.20;;;7.70;99.90;;;;;;5121544;28;20055;-71
2023/12/09 01:41:02;;;;;;;23.63;16.10;;;7.70;99.90;;;;;;5102522;28;20036;-73
2023/12/09 01:43:28;;;;;;;22.50;16.23;;;7.60;99.90;;;;;;5121803;28;20036;-71
2023/12/09 01:46:04;;;;;;;24.45;16.85;;;7.70;99.90;;;;;;5121604;28;20035;-72
2023/12/09 01:48:30;;;;;;;23.02;16.55;;;7.70;99.90;;;;;;5101618;28;20446;-72
2023/12/09 01:50:56;;;;;;;23.98;15.60;;;7.60;99.90;;;;;;5104036;28;20068;-72
2023/12/09 01:53:22;;;;;;;30.83;18.08;;;7.70;99.90;;;;;;5084312;28;20044;-72
2023/12/09 01:55:48;;;;;;;27.83;16.48;;;7.70;99.90;;;;;;5085306;28;20047;-73
2023/12/09 01:58:15;;;;;;;29.75;16.38;;;7.70;99.90;;;;;;5100192;28;20044;-70
2023/12/09 02:00:42;;;;;;;21.83;15.65;;;7.70;99.90;;;;;;5122389;28;20079;-73
2023/12/09 02:03:07;;;;;;;27.85;16.48;;;7.70;99.90;;;;;;5103522;28;20043;-72
2023/12/09 02:05:33;;;;;;;21.42;15.63;;;7.70;99.90;;;;;;5103012;28;20027;-72
2023/12/09 02:07:59;;;;;;;24.20;15.35;;;7.70;99.90;;;;;;5104847;28;20193;-72
2023/12/09 02:10:25;;;;;;;28.42;16.15;;;7.70;99.90;;;;;;5084514;28;20047;-73
2023/12/09 02:13:16;;;;;;;24.90;15.32;;;7.70;99.90;;;;;;5104906;28;20130;-72
2023/12/09 02:15:55;;;;;;;23.80;15.55;;;7.70;99.90;;;;;;5112938;28;20047;-73
2023/12/09 02:18:23;;;;;;;22.95;14.70;;;7.70;99.90;;;;;;5103022;28;20074;-72
2023/12/09 02:20:49;;;;;;;30.75;16.38;;;7.70;99.90;;;;;;5118527;28;20050;-73
2023/12/09 02:23:15;;;;;;;25.33;15.10;;;7.70;99.90;;;;;;5065934;28;20058;-72
2023/12/09 02:25:41;;;;;;;25.25;14.98;;;7.70;99.90;;;;;;5119659;28;20050;-73
2023/12/09 02:28:09;;;;;;;21.30;14.18;;;7.70;99.90;;;;;;5102004;28;20107;-73
2023/12/09 02:30:50;;;;;;;22.92;13.85;;;7.70;99.90;;;;;;5120582;28;20043;-73
2023/12/09 02:33:17;;;;;;;23.33;14.88;;;7.70;99.90;;;;;;5118641;28;20051;-72
2023/12/09 02:35:45;;;;;;;24.30;15.18;;;7.70;99.90;;;;;;5120639;28;20034;-73
2023/12/09 02:38:11;;;;;;;22.80;14.27;;;7.70;99.90;;;;;;5123141;28;20097;-72
2023/12/09 02:40:39;;;;;;;21.60;15.00;;;7.70;99.90;;;;;;5119434;28;20050;-72
2023/12/09 02:43:05;;;;;;;25.33;14.73;;;7.70;99.90;;;;;;5122191;28;20036;-73
2023/12/09 02:45:31;;;;;;;20.88;13.63;;;7.70;99.90;;;;;;5119346;28;20075;-71
2023/12/09 02:47:57;;;;;;;22.05;14.68;;;7.70;99.90;;;;;;5122311;28;20051;-72
2023/12/09 02:50:22;;;;;;;20.73;14.23;;;7.70;99.90;;;;;;5103842;28;20075;-72
2023/12/09 02:52:48;;;;;;;24.55;14.65;;;7.70;99.90;;;;;;5119683;28;20071;-74
2023/12/09 02:55:14;;;;;;;23.50;14.88;;;7.70;99.90;;;;;;5120615;28;20109;-72
2023/12/09 02:57:39;;;;;;;22.88;14.02;;;7.70;99.90;;;;;;5118672;28;20068;-72
2023/12/09 03:00:06;;;;;;;20.38;12.70;;;7.70;99.90;;;;;;5123269;28;20042;-75
2023/12/09 03:02:32;;;;;;;21.98;14.85;;;7.70;99.90;;;;;;5121071;28;20103;-73
2023/12/09 03:04:58;;;;;;;20.20;14.27;;;7.70;99.90;;;;;;5124278;28;20073;-72
2023/12/09 03:07:24;;;;;;;28.02;13.48;;;7.70;99.90;;;;;;5106388;28;20058;-72
2023/12/09 03:09:50;;;;;;;21.27;14.57;;;7.70;99.90;;;;;;5123658;28;20093;-73
2023/12/09 03:12:16;;;;;;;19.63;13.88;;;7.70;99.90;;;;;;5108438;28;20085;-74
2023/12/09 03:14:42;;;;;;;21.00;14.32;;;7.70;99.90;;;;;;5122218;28;20040;-72
2023/12/09 03:17:09;;;;;;;22.05;13.95;;;7.70;99.90;;;;;;5107506;28;20035;-74
2023/12/09 03:19:35;;;;;;;19.83;13.48;;;7.70;99.90;;;;;;5121164;28;20407;-73
2023/12/09 03:22:01;;;;;;;19.35;13.30;;;7.70;99.90;;;;;;5125144;28;20463;-72
2023/12/09 03:24:27;;;;;;;22.48;14.25;;;7.70;99.90;;;;;;5123311;28;20114;-72
2023/12/09 03:26:54;;;;;;;19.83;12.65;;;7.70;99.90;;;;;;5124680;28;20043;-74
2023/12/09 03:29:20;;;;;;;26.98;13.38;;;7.70;99.90;;;;;;5125714;28;20069;-72
2023/12/09 03:31:46;;;;;;;23.13;13.48;;;7.70;99.90;;;;;;5105696;28;20084;-73
2023/12/09 03:34:13;;;;;;;18.25;11.38;;;7.70;99.90;;;;;;5125770;28;20042;-73
2023/12/09 03:36:39;;;;;;;22.45;13.55;;;7.70;99.90;;;;;;5121672;28;20396;-74
2023/12/09 03:39:06;;;;;;;21.98;14.63;;;7.70;99.90;;;;;;5124793;28;20048;-79
2023/12/09 03:41:32;;;;;;;18.13;12.48;;;7.70;99.90;;;;;;5122914;28;20056;-75
2023/12/09 03:43:58;;;;;;;18.42;12.00;;;7.70;99.90;;;;;;5122996;28;20089;-74
2023/12/09 03:46:24;;;;;;;20.67;13.32;;;7.70;99.90;;;;;;5123640;28;20090;-73
2023/12/09 03:48:50;;;;;;;15.73;11.75;;;7.70;99.90;;;;;;5122362;28;20499;-72
2023/12/09 03:51:16;;;;;;;18.85;13.35;;;7.60;99.90;;;;;;5124389;28;20096;-76
2023/12/09 03:53:42;;;;;;;25.63;13.65;;;7.60;99.90;;;;;;5122520;28;20051;-73
2023/12/09 03:56:08;;;;;;;23.50;12.40;;;7.70;99.90;;;;;;5124128;28;20122;-73
2023/12/09 03:58:36;;;;;;;25.55;13.13;;;7.70;99.90;;;;;;5122561;28;20048;-71
2023/12/09 04:01:02;;;;;;;18.55;12.55;;;7.60;99.90;;;;;;5124188;28;20036;-73
2023/12/09 04:03:28;;;;;;;23.80;13.10;;;7.60;99.90;;;;;;5125662;28;20420;-71
2023/12/09 04:05:54;;;;;;;16.70;11.98;;;7.60;99.90;;;;;;5122129;28;20061;-72
2023/12/09 04:08:20;;;;;;;20.25;11.82;;;7.60;99.90;;;;;;5125377;28;20096;-72
2023/12/09 04:10:46;;;;;;;16.52;11.18;;;7.60;99.90;;;;;;5122222;28;20055;-72
2023/12/09 04:13:12;;;;;;;19.48;12.13;;;7.60;99.90;;;;;;5125086;28;20060;-71
2023/12/09 04:15:40;;;;;;;21.15;11.93;;;7.60;99.90;;;;;;5121664;28;20047;-72
2023/12/09 04:18:06;;;;;;;19.80;12.00;;;7.50;99.90;;;;;;5123330;28;20040;-74
2023/12/09 04:20:32;;;;;;;17.55;10.35;;;7.50;99.90;;;;;;5123422;28;20096;-73
2023/12/09 04:22:58;;;;;;;23.77;13.73;;;7.50;99.90;;;;;;5121265;28;20043;-72
2023/12/09 04:25:24;;;;;;;18.85;11.18;;;7.50;99.90;;;;;;5120985;28;20079;-75
2023/12/09 04:27:56;;;;;;;19.48;11.60;;;7.50;99.90;;;;;;5118705;28;20084;-73
2023/12/09 04:30:22;;;;;;;22.17;12.23;;;7.50;99.90;;;;;;5120923;28;20104;-72
2023/12/09 04:32:48;;;;;;;17.70;11.77;;;7.50;99.90;;;;;;5121406;28;20535;-72
2023/12/09 04:35:14;;;;;;;20.75;11.43;;;7.50;99.90;;;;;;5123834;28;20044;-77
2023/12/09 04:37:40;;;;;;;19.95;12.95;;;7.50;99.90;;;;;;5106260;28;20040;-73
2023/12/09 04:40:13;;;;;;;17.05;13.48;;;7.50;99.90;;;;;;5121844;28;20036;-73
2023/12/09 04:42:39;;;;;;;18.33;12.38;;;7.50;99.90;;;;;;5107465;28;20043;-73
2023/12/09 04:45:06;;;;;;;16.50;12.93;;;7.50;99.90;;;;;;5121346;28;20040;-76
2023/12/09 04:47:32;;;;;;;22.08;10.90;;;7.40;99.90;;;;;;5123550;28;20039;-71
2023/12/09 04:49:58;;;;;;;20.13;12.88;;;7.40;99.90;;;;;;5121698;28;20043;-73
2023/12/09 04:52:24;;;;;;;26.58;12.77;;;7.40;99.90;;;;;;5123935;28;20051;-73
2023/12/09 04:54:50;;;;;;;18.48;11.80;;;7.40;99.90;;;;;;5122909;28;20048;-73
2023/12/09 04:57:16;;;;;;;18.60;12.52;;;7.40;99.90;;;;;;5122149;28;20088;-71
2023/12/09 04:59:42;;;;;;;19.45;10.95;;;7.40;99.90;;;;;;5122306;28;20039;-71
2023/12/09 05:02:08;;;;;;;17.73;12.13;;;7.30;99.90;;;;;;5120599;28;20061;-73
2023/12/09 05:04:33;;;;;;;19.98;11.32;;;7.30;99.90;;;;;;5123249;28;20051;-72
2023/12/09 05:06:59;;;;;;;23.63;13.93;;;7.40;99.90;;;;;;5120697;28;20060;-72
2023/12/09 05:09:25;;;;;;;19.35;11.05;;;7.30;99.90;;;;;;5105587;28;20134;-77
2023/12/09 05:11:51;;;;;;;17.88;11.48;;;7.30;99.90;;;;;;5122100;28;20059;-72
2023/12/09 05:14:16;;;;;;;17.40;10.68;;;7.30;99.90;;;;;;5120712;28;20040;-74
2023/12/09 05:16:42;;;;;;;13.23;10.63;;;7.30;99.90;;;;;;5122618;28;20047;-71
2023/12/09 05:19:08;;;;;;;19.20;10.32;;;7.30;99.90;;;;;;5120165;28;20131;-73
2023/12/09 05:21:34;;;;;;;21.13;11.77;;;7.30;99.90;;;;;;5105563;28;20043;-72
2023/12/09 05:24:00;;;;;;;17.05;13.07;;;7.30;99.90;;;;;;5120122;28;20061;-73
2023/12/09 05:26:27;;;;;;;14.18;10.63;;;7.30;99.90;;;;;;5122638;28;20063;-72
2023/12/09 05:28:54;;;;;;;19.88;12.13;;;7.20;99.90;;;;;;5122051;28;20111;-72
2023/12/09 05:31:20;;;;;;;19.85;13.73;;;7.20;99.90;;;;;;5120262;28;20081;-71
2023/12/09 05:33:46;;;;;;;23.98;12.82;;;7.20;99.90;;;;;;5122410;28;20040;-72
2023/12/09 05:36:12;;;;;;;21.17;12.02;;;7.20;99.90;;;;;;5121221;28;20053;-77
2023/12/09 05:38:38;;;;;;;16.65;13.15;;;7.20;99.90;;;;;;5122009;28;20059;-71
2023/12/09 05:41:08;;;;;;;22.75;13.80;;;7.20;99.90;;;;;;5103582;28;20149;-72
2023/12/09 05:43:36;;;;;;;18.48;13.25;;;7.20;99.90;;;;;;5121666;28;20040;-72
2023/12/09 05:46:02;;;;;;;14.85;11.57;;;7.20;99.90;;;;;;5122653;28;20040;-74
2023/12/09 05:48:28;;;;;;;17.10;11.88;;;7.30;99.90;;;;;;5103643;28;20122;-73
2023/12/09 05:50:54;;;;;;;21.15;11.68;;;7.30;99.90;;;;;;5122086;28;20184;-72
2023/12/09 05:53:19;;;;;;;13.18;10.55;;;7.30;99.90;;;;;;5119511;28;20040;-71
2023/12/09 05:55:45;;;;;;;16.92;11.10;;;7.30;99.90;;;;;;5122570;28;20047;-73
2023/12/09 05:58:11;;;;;;;19.30;12.00;;;7.30;99.90;;;;;;5119901;28;20117;-72
2023/12/09 06:00:36;;;;;;;14.20;10.93;;;7.30;99.90;;;;;;5121738;28;20062;-78
2023/12/09 06:03:02;;;;;;;14.90;11.60;;;7.40;99.90;;;;;;5121104;28;20107;-72
2023/12/09 06:05:28;;;;;;;15.63;11.30;;;7.30;99.90;;;;;;5119965;28;20127;-74
2023/12/09 06:07:54;;;;;;;20.30;10.77;;;7.20;99.90;;;;;;5121839;28;20516;-73
2023/12/09 06:10:19;;;;;;;17.65;11.05;;;7.20;99.90;;;;;;5102545;28;20056;-73
2023/12/09 06:12:45;;;;;;;14.38;10.98;;;7.20;99.90;;;;;;5122180;28;20127;-72
2023/12/09 06:15:11;;;;;;;15.75;10.63;;;7.20;99.90;;;;;;5119348;28;20063;-71
2023/12/09 06:17:37;;;;;;;15.32;11.48;;;7.20;99.90;;;;;;5107771;28;20044;-74
2023/12/09 06:20:06;;;;;;;11.38;9.55;;;7.10;99.90;;;;;;5119971;28;20054;-71
2023/12/09 06:22:32;;;;;;;16.13;9.75;;;7.20;99.90;;;;;;5120191;28;20054;-77
2023/12/09 06:24:58;;;;;;;12.52;10.23;;;7.20;99.90;;;;;;5122850;28;20071;-72
2023/12/09 06:27:26;;;;;;;10.82;9.27;;;7.20;99.90;;;;;;5120970;28;20063;-75
2023/12/09 06:29:52;;;;;;;12.63;10.20;;;7.10;99.90;;;;;;5123155;28;20031;-71
2023/12/09 06:32:18;;;;;;;16.88;10.65;;;7.10;99.90;;;;;;5120217;28;20492;-73
2023/12/09 06:34:44;;;;;;;16.55;10.43;;;7.10;99.90;;;;;;5121060;28;20036;-72
2023/12/09 06:37:09;;;;;;;14.52;9.95;;;7.10;99.90;;;;;;5119842;28;20127;-71
2023/12/09 06:39:35;;;;;;;14.68;10.73;;;7.10;99.90;;;;;;5120086;28;20039;-72
2023/12/09 06:42:01;;;;;;;12.43;9.38;;;7.10;99.90;;;;;;5121462;28;20043;-72
2023/12/09 06:44:27;;;;;;;17.60;10.93;;;7.10;99.90;;;;;;5119016;28;20066;-73
2023/12/09 06:46:52;;;;;;;15.98;11.45;;;7.10;99.90;;;;;;5121472;28;20032;-74
2023/12/09 06:49:18;;;;;;;16.42;10.55;;;7.10;99.90;;;;;;5119412;28;20043;-73
2023/12/09 06:51:45;;;;;;;12.52;10.07;;;7.10;99.90;;;;;;5121001;28;20048;-72
2023/12/09 06:54:11;;;;;;;14.52;10.40;;;7.00;99.90;;;;;;5120489;28;20043;-74
2023/12/09 06:56:37;;;;;;;17.10;10.75;;;7.00;99.90;;;;;;5120812;28;20040;-72
2023/12/09 06:59:03;;;;;;;14.60;9.82;;;7.10;99.90;;;;;;5121394;28;20104;-72
2023/12/09 07:01:29;;;;;;;17.08;10.00;;;7.00;99.90;;;;;;5111454;28;20222;-73
2023/12/09 07:03:55;;;;;;;16.65;10.18;;;7.00;99.90;;;;;;5120999;28;20051;-71
2023/12/09 07:06:23;;;;;;;19.15;10.70;;;7.00;99.90;;;;;;5100934;28;20065;-73
2023/12/09 07:08:49;;;;;;;14.88;10.10;;;7.00;99.90;;;;;;5120810;28;20047;-72
2023/12/09 07:11:19;;;;;;;14.65;9.65;;;7.00;99.90;;;;;;5119278;28;20059;-71
2023/12/09 07:13:44;;;;;;;14.02;9.80;;;7.00;99.90;;;;;;5103614;28;20060;-72
2023/12/09 07:16:12;;;;;;;12.25;8.90;;;7.00;99.90;;;;;;5120347;28;20054;-72
2023/12/09 07:18:40;;;;;;;14.20;9.80;;;6.90;99.90;;;;;;5120452;28;20058;-73
2023/12/09 07:21:06;;;;;;;14.23;9.18;;;6.90;99.90;;;;;;5121518;28;20077;-73
2023/12/09 07:23:31;;;;;;;14.75;8.20;;;6.90;99.90;;;;;;5118891;28;20051;-73
2023/12/09 07:25:57;;;;;;;13.25;8.80;;;6.90;99.90;;;;;;5120856;28;20050;-72
2023/12/09 07:28:23;;;;;;;14.45;7.93;;;6.90;99.90;;;;;;5118930;28;20439;-71
2023/12/09 07:30:49;;;;;;;12.38;8.30;;;6.90;99.90;;;;;;5120742;28;20043;-71
2023/12/09 07:33:14;;;;;;;11.48;7.57;;;6.90;99.90;;;;;;5121571;28;20040;-72
2023/12/09 07:35:40;;;;;;;14.60;7.88;;;6.90;99.90;;;;;;5118259;28;20082;-72
2023/12/09 07:38:06;;;;;;;12.20;8.25;;;6.80;99.90;;;;;;5121311;28;20061;-73
2023/12/09 07:40:32;;;;;;;7.18;6.32;;;6.80;99.90;;;;;;5118987;28;20040;-71
2023/12/09 07:42:57;;;;;;;9.98;7.40;;;6.80;99.90;;;;;;5104183;28;20162;-74
2023/12/09 07:45:23;;;;;;;12.20;7.05;;;6.70;99.90;;;;;;5118948;28;20048;-75
2023/12/09 07:47:49;;;;;;;9.85;7.38;;;6.60;99.90;;;;;;5124493;28;20040;-72
2023/12/09 07:50:14;;;;;;;12.40;8.30;;;6.60;99.90;;;;;;5103420;28;20491;-73
2023/12/09 07:52:40;;;;;;;13.73;8.13;;;6.60;99.90;;;;;;5103555;28;20145;-73
2023/12/09 07:55:07;;;;;;;11.38;7.43;;;6.60;99.90;;;;;;5124590;28;20051;-73
2023/12/09 07:57:34;;;;;;;12.13;7.35;;;6.60;99.90;;;;;;5122312;28;20075;-74
2023/12/09 08:00:00;;;;;;;13.50;7.50;;;6.60;99.90;;;;;;5123675;28;20031;-73
2023/12/09 08:02:26;;;;;;;12.07;7.25;;;6.60;99.90;;;;;;5122317;28;20093;-73
2023/12/09 08:04:51;;;;;;;14.77;7.55;;;6.50;99.90;;;;;;5124026;28;20043;-75
2023/12/09 08:07:17;;;;;;;15.77;7.63;;;6.50;99.90;;;;;;5122903;28;20047;-72
2023/12/09 08:09:43;;;;;;;14.70;7.20;;;6.50;99.90;;;;;;5123131;28;20039;-71
2023/12/09 08:12:09;;;;;;;7.05;5.88;;;6.50;99.90;;;;;;5123831;28;20044;-71
2023/12/09 08:14:34;;;;;;;13.05;7.25;;;6.50;99.90;;;;;;5122696;28;20177;-73
2023/12/09 08:17:00;;;;;;;7.82;6.53;;;6.50;99.90;;;;;;5117972;28;20045;-72
2023/12/09 08:19:26;;;;;;;8.38;6.22;;;6.60;99.90;;;;;;5121840;28;20048;-71
2023/12/09 08:21:52;;;;;;;14.85;6.95;;;6.50;99.90;;;;;;5123731;28;20157;-73
2023/12/09 08:24:17;;;;;;;10.98;6.38;;;6.60;99.90;;;;;;5105592;28;20039;-73
2023/12/09 08:26:44;;;;;;;7.18;5.82;;;6.60;99.90;;;;;;5122626;28;20067;-72
2023/12/09 08:29:14;;;;;;;9.85;6.32;;;6.60;99.90;;;;;;5123296;28;20039;-71
2023/12/09 08:31:46;;;;;;;10.20;5.88;;;6.60;99.90;;;;;;5122009;28;20104;-72
2023/12/09 08:34:13;;;;;;;8.43;5.60;;;6.60;99.90;;;;;;5123932;28;20070;-74
2023/12/09 08:36:38;;;;;;;10.48;6.25;;;6.60;99.90;;;;;;5121022;28;20048;-74
2023/12/09 08:39:04;;;;;;;10.57;5.85;;;6.70;99.90;;;;;;5106602;28;20123;-74
2023/12/09 08:41:30;;;;;;;11.55;5.75;;;6.70;99.90;;;;;;5122908;28;20047;-74
2023/12/09 08:43:56;;;;;;;9.13;5.72;;;6.70;99.90;;;;;;5122110;28;20426;-74
2023/12/09 08:46:22;;;;;;;8.55;5.50;;;6.70;99.90;;;;;;5123454;28;20047;-75
2023/12/09 08:48:48;;;;;;;9.10;5.85;;;6.70;99.90;;;;;;5121911;28;20032;-73
2023/12/09 08:51:14;;;;;;;8.80;5.70;;;6.70;99.90;;;;;;5122424;28;20075;-73
2023/12/09 08:53:40;;;;;;;12.60;6.53;;;6.70;99.90;;;;;;5121276;28;20051;-72
2023/12/09 08:56:07;;;;;;;11.95;5.45;;;6.80;99.90;;;;;;5089470;28;20039;-75
2023/12/09 08:58:33;;;;;;;10.10;5.38;;;6.80;99.90;;;;;;5121616;28;20050;-72
2023/12/09 09:00:59;;;;;;;8.23;5.28;;;6.80;99.90;;;;;;5105012;28;20067;-74
2023/12/09 09:03:25;;;;;;;9.55;5.40;;;6.90;99.90;;;;;;5115559;28;20104;-73
2023/12/09 09:05:51;;;;;;;10.07;5.45;;;7.00;99.90;;;;;;5117904;28;20437;-72
2023/12/09 09:08:18;;;;;;;9.27;7.20;;;6.90;99.90;;;;;;5121448;27;20055;-73
2023/12/09 09:10:44;;;;;;;7.53;4.90;;;7.00;99.90;;;;;;5118377;28;20059;-74
2023/12/09 09:13:09;;;;;;;13.00;6.18;;;7.50;99.90;;;;;;5123548;28;20043;-74
2023/12/09 09:15:37;;;;;;;8.13;4.63;;;7.10;99.90;;;;;;5120635;28;20058;-74
2023/12/09 09:18:02;;;;;;;9.90;4.82;;;7.10;99.90;;;;;;5119965;28;20079;-74
2023/12/09 09:20:28;;;;;;;7.15;4.63;;;7.10;99.90;;;;;;5102972;28;20075;-73
2023/12/09 09:22:54;;;;;;;7.63;4.65;;;7.10;99.90;;;;;;5117340;28;20123;-73
2023/12/09 09:25:20;;;;;;;8.70;4.80;;;7.20;99.90;;;;;;5121034;28;20131;-74
2023/12/09 09:27:47;;;;;;;9.77;5.18;;;7.20;99.90;;;;;;5114638;28;20078;-74
2023/12/09 09:30:13;;;;;;;8.85;4.63;;;7.20;99.90;;;;;;5122248;28;20043;-73
2023/12/09 09:32:40;;;;;;;11.07;4.50;;;7.30;99.90;;;;;;5118214;28;20067;-74
2023/12/09 09:35:06;;;;;;;11.77;4.45;;;7.30;99.90;;;;;;5117362;28;20481;-74
2023/12/09 09:37:33;;;;;;;7.97;4.50;;;7.40;99.90;;;;;;5120047;28;20035;-73
2023/12/09 09:39:59;;;;;;;9.93;4.85;;;7.40;99.90;;;;;;5116892;28;20054;-73
2023/12/09 09:42:42;;;;;;;9.93;3.50;;;7.40;99.90;;;;;;5100917;28;20044;-74
2023/12/09 09:45:28;;;;;;;8.60;4.50;;;7.40;99.90;;;;;;5119413;28;20096;-74
2023/12/09 09:47:55;;;;;;;;;;;7.50;99.90;;;;;;5118741;28;20048;-74
2023/12/09 09:50:26;;;;;;;8.18;3.95;;;7.50;99.90;;;;;;5122467;28;19931;-74
2023/12/09 09:52:53;;;;;;;7.47;3.70;;;7.50;99.90;;;;;;5120658;27;20114;-74
2023/12/09 09:55:25;;;;;;;7.22;4.10;;;7.40;99.90;;;;;;5122776;28;20065;-73
2023/12/09 09:57:52;;;;;;;9.13;4.22;;;7.40;99.90;;;;;;5125811;27;20062;-74
2023/12/09 10:00:19;;;;;;;8.60;4.18;;;7.30;99.90;;;;;;5122078;28;20048;-74
2023/12/09 10:02:46;;;;;;;7.50;4.45;;;7.30;99.90;;;;;;5120703;28;20039;-74
2023/12/09 10:05:15;;;;;;;11.27;4.50;;;7.30;99.90;;;;;;5118482;28;20057;-74
2023/12/09 10:07:42;;;;;;;9.32;4.40;;;7.30;99.90;;;;;;5121303;28;20046;-73
2023/12/09 10:10:09;;;;;;;9.43;4.88;;;7.30;99.90;;;;;;5115941;28;20052;-73
2023/12/09 10:12:35;;;;;;;9.20;4.97;;;7.40;99.90;;;;;;5121826;28;20490;-73
2023/12/09 10:15:02;;;;;;;7.63;4.50;;;7.40;99.90;;;;;;5120922;28;20031;-73
2023/12/09 10:17:29;;;;;;;8.50;4.25;;;7.40;99.90;;;;;;5119127;28;20044;-73
2023/12/09 10:19:55;;;;;;;8.25;4.47;;;7.40;99.90;;;;;;5121198;28;20051;-73
2023/12/09 10:22:21;;;;;;;5.60;4.30;;;7.50;99.90;;;;;;5120477;28;20043;-74
2023/12/09 10:24:51;;;;;;;11.68;5.55;;;7.70;99.90;;;;;;5120595;28;20123;-72
2023/12/09 10:27:19;;;;;;;8.40;4.20;;;7.80;99.90;;;;;;5119131;28;20398;-72
2023/12/09 10:29:45;;;;;;;9.98;3.95;;;7.90;99.90;;;;;;5119720;28;20090;-74
2023/12/09 10:32:12;;;;;;;8.15;3.70;;;7.90;99.90;;;;;;5120053;28;20472;-73
2023/12/09 10:34:41;;;;;;;8.00;3.80;;;8.00;99.90;;;;;;5120860;28;20426;-72
2023/12/09 10:37:10;;;;;;;6.47;3.55;;;8.00;99.90;;;;;;5116867;28;20044;-72
2023/12/09 10:39:36;;;;;;;5.68;3.67;;;8.00;99.90;;;;;;5100915;28;20047;-73
2023/12/09 10:42:05;;;;;;;6.68;3.65;;;8.00;99.90;;;;;;5119032;28;20550;-73
2023/12/09 10:44:31;;;;;;;6.47;4.07;;;8.00;99.90;;;;;;5120113;28;20108;-73
2023/12/09 10:46:57;;;;;;;6.78;3.40;;;7.90;99.90;;;;;;5119935;28;20391;-74
2023/12/09 10:49:23;;;;;;;5.72;3.33;;;7.90;99.90;;;;;;5118451;28;20058;-72
2023/12/09 10:51:48;;;;;;;4.72;3.15;;;7.90;99.90;;;;;;5120574;28;20039;-72
2023/12/09 10:54:14;;;;;;;6.60;3.17;;;7.80;99.90;;;;;;5118237;28;20039;-72
2023/12/09 10:56:40;;;;;;;5.05;3.50;;;7.80;99.90;;;;;;5121344;28;20043;-74
2023/12/09 10:59:08;;;;;;;7.55;3.70;;;7.80;99.90;;;;;;5118543;28;20096;-72
2023/12/09 11:01:33;;;;;;;8.45;3.70;;;7.80;99.90;;;;;;5117640;28;20071;-73
2023/12/09 11:04:00;;;;;;;4.57;3.38;;;7.80;99.90;;;;;;5120147;28;20050;-73
2023/12/09 11:06:31;;;;;;;7.57;3.35;;;7.90;99.90;;;;;;5116855;28;20052;-72
2023/12/09 11:08:57;;;;;;;6.20;3.85;;;7.80;99.90;;;;;;5120614;28;20380;-73
2023/12/09 11:11:24;;;;;;;4.82;3.05;;;7.90;99.90;;;;;;5119120;28;20054;-73
2023/12/09 11:13:49;;;;;;;5.65;3.25;;;7.90;99.90;;;;;;5119037;28;20091;-73
2023/12/09 11:16:20;;;;;;;6.00;3.58;;;8.00;99.90;;;;;;5101626;28;20074;-72
2023/12/09 11:18:57;;;;;;;4.82;3.55;;;8.00;99.90;;;;;;5115499;28;20046;-73
2023/12/09 11:21:25;;;;;;;3.72;3.40;;;8.00;99.90;;;;;;5120384;28;20043;-74
2023/12/09 11:23:56;;;;;;;6.90;3.38;;;8.00;99.90;;;;;;5121801;28;20047;-73
2023/12/09 11:26:33;;;;;;;4.90;3.35;;;8.00;99.90;;;;;;5123554;28;20090;-72
2023/12/09 11:29:05;;;;;;;5.30;3.60;;;8.00;99.90;;;;;;5124181;28;20116;-71
2023/12/09 11:31:49;;;;;;;5.38;3.22;;;8.00;99.90;;;;;;5119175;28;20042;-71
2023/12/09 11:34:17;;;;;;;6.57;3.72;;;8.00;99.90;;;;;;5121588;28;20058;-73
2023/12/09 11:36:44;;;;;;;5.20;3.50;;;8.00;99.90;;;;;;5121993;28;20058;-71
2023/12/09 11:39:19;;;;;;;4.72;3.45;;;8.00;99.90;;;;;;5125562;28;20500;-72
2023/12/09 11:41:46;;;;;;;5.28;3.40;;;8.00;99.90;;;;;;5125557;27;20047;-72
2023/12/09 11:44:13;;;;;;;5.07;3.20;;;8.00;99.90;;;;;;5122046;28;20048;-72
2023/12/09 11:46:39;;;;;;;5.68;3.40;;;8.00;99.90;;;;;;5125496;27;20039;-71
2023/12/09 11:49:06;;;;;;;7.00;3.30;;;8.00;99.90;;;;;;5124125;27;20071;-72
2023/12/09 11:51:36;;;;;;;6.65;3.00;;;8.00;99.90;;;;;;5124361;28;20125;-72
2023/12/09 11:54:09;;;;;;;6.90;3.75;;;8.00;99.90;;;;;;5122582;28;20043;-71
2023/12/09 11:56:37;;;;;;;5.82;3.15;;;8.00;99.90;;;;;;5123954;28;20067;-71
2023/12/09 11:59:05;;;;;;;7.30;3.10;;;8.00;99.90;;;;;;5142737;27;20043;-71
2023/12/09 12:01:31;;;;;;;6.22;3.65;;;8.00;99.90;;;;;;5143462;27;20036;-72
2023/12/09 12:03:58;;;;;;;6.22;3.65;;;8.00;99.90;;;;;;5146421;27;20399;-71
2023/12/09 12:06:24;;;;;;;4.78;3.60;;;7.90;99.90;;;;;;5132259;27;20048;-71
2023/12/09 12:08:53;;;;;;;6.07;3.28;;;7.90;99.90;;;;;;5120382;28;20062;-72
2023/12/09 12:11:23;;;;;;;7.63;3.53;;;7.90;99.90;;;;;;5122834;28;20113;-72
2023/12/09 12:13:49;;;;;;;5.88;3.63;;;8.00;99.90;;;;;;5121420;28;20047;-71
2023/12/09 12:16:15;;;;;;;4.72;3.45;;;8.00;99.90;;;;;;5123791;28;20039;-71
2023/12/09 12:18:41;;;;;;;5.90;3.47;;;8.00;99.90;;;;;;5122014;28;20047;-72
2023/12/09 12:21:07;;;;;;;7.72;3.38;;;8.00;99.90;;;;;;5121998;28;20059;-71
2023/12/09 12:23:34;;;;;;;7.43;3.58;;;8.00;99.90;;;;;;5121274;28;20051;-71
2023/12/09 12:25:59;;;;;;;5.60;3.40;;;8.00;99.90;;;;;;5122075;28;20108;-72
2023/12/09 12:28:26;;;;;;;5.35;3.53;;;8.00;99.90;;;;;;5123923;28;20557;-71
2023/12/09 12:30:59;;;;;;;4.93;3.47;;;8.00;99.90;;;;;;5121613;28;20052;-71
2023/12/09 12:33:26;;;;;;;8.02;4.35;;;8.00;99.90;;;;;;5123773;28;20112;-71
2023/12/09 12:35:55;;;;;;;8.13;3.60;;;7.90;99.90;;;;;;5120475;28;20048;-72
2023/12/09 12:38:22;;;;;;;7.03;3.58;;;7.90;99.90;;;;;;5124232;28;20047;-71
2023/12/09 12:40:49;;;;;;;5.32;3.47;;;7.90;99.90;;;;;;5122504;28;20055;-71
2023/12/09 12:43:16;;;;;;;6.97;3.50;;;7.90;99.90;;;;;;5122327;28;20062;-71